createdAt,value
2023-04-10T00:00:02.226Z,100.00
2023-04-10T00:02:33.130Z,100.00
2023-04-10T00:05:01.716Z,100.00
2023-04-10T00:07:30.117Z,100.00
2023-04-10T00:09:58.085Z,100.00
2023-04-10T00:12:26.697Z,100.00
2023-04-10T00:14:56.022Z,100.00
2023-04-10T00:17:25.779Z,100.00
2023-04-10T00:19:53.776Z,100.00
2023-04-10T00:22:22.182Z,100.00
2023-04-10T00:24:51.798Z,100.00
2023-04-10T00:27:19.789Z,100.00
2023-04-10T00:29:48.117Z,100.00
2023-04-10T00:32:16.124Z,100.00
2023-04-10T00:34:47.858Z,100.00
2023-04-10T00:37:16.325Z,100.00
2023-04-10T00:39:44.818Z,100.00
2023-04-10T00:42:13.255Z,100.00
2023-04-10T00:44:44.618Z,100.00
2023-04-10T00:47:13.940Z,100.00
2023-04-10T00:49:42.111Z,100.00
2023-04-10T00:52:14.441Z,100.00
2023-04-10T00:54:43.004Z,100.00
2023-04-10T00:57:11.418Z,100.00
2023-04-10T00:59:40.231Z,100.00
2023-04-10T01:02:08.490Z,100.00
2023-04-10T01:04:38.088Z,100.00
2023-04-10T01:07:11.740Z,100.00
2023-04-10T01:09:47.364Z,100.00
2023-04-10T01:12:27.079Z,100.00
2023-04-10T01:15:03.355Z,100.00
2023-04-10T01:17:33.582Z,100.00
2023-04-10T01:20:08.387Z,100.00
2023-04-10T01:22:38.123Z,100.00
2023-04-10T01:25:30.056Z,100.00
2023-04-10T01:28:06.775Z,100.00
2023-04-10T01:30:38.378Z,100.00
2023-04-10T01:33:08.299Z,100.00
2023-04-10T01:35:36.373Z,100.00
2023-04-10T01:38:06.748Z,100.00
2023-04-10T01:40:36.510Z,100.00
2023-04-10T01:43:07.771Z,100.00
2023-04-10T01:45:46.509Z,100.00
2023-04-10T01:48:16.826Z,100.00
2023-04-10T01:50:45.513Z,100.00
2023-04-10T01:53:14.826Z,100.00
2023-04-10T01:55:44.312Z,100.00
2023-04-10T01:58:14.013Z,100.00
2023-04-10T02:00:43.663Z,100.00
2023-04-10T02:03:15.205Z,100.00
2023-04-10T02:05:50.783Z,100.00
2023-04-10T02:08:21.822Z,100.00
2023-04-10T02:10:53.591Z,100.00
2023-04-10T02:13:23.452Z,100.00
2023-04-10T02:15:52.322Z,100.00
2023-04-10T02:18:23.476Z,100.00
2023-04-10T02:20:52.839Z,100.00
2023-04-10T02:23:21.221Z,100.00
2023-04-10T02:25:49.268Z,100.00
2023-04-10T02:28:17.263Z,100.00
2023-04-10T02:30:45.078Z,100.00
2023-04-10T02:33:14.394Z,100.00
2023-04-10T02:35:45.596Z,100.00
2023-04-10T02:38:15.578Z,100.00
2023-04-10T02:40:46.300Z,100.00
2023-04-10T02:43:16.454Z,100.00
2023-04-10T02:45:44.431Z,100.00
2023-04-10T02:48:16.083Z,100.00
2023-04-10T02:50:47.040Z,100.00
2023-04-10T02:53:15.799Z,100.00
2023-04-10T02:55:44.212Z,100.00
2023-04-10T02:58:14.887Z,100.00
2023-04-10T03:00:48.691Z,100.00
2023-04-10T03:03:21.350Z,100.00
2023-04-10T03:05:55.423Z,100.00
2023-04-10T03:08:30.417Z,100.00
2023-04-10T03:10:58.468Z,100.00
2023-04-10T03:13:27.196Z,100.00
2023-04-10T03:15:55.727Z,100.00
2023-04-10T03:18:24.349Z,100.00
2023-04-10T03:20:55.505Z,100.00
2023-04-10T03:23:23.520Z,100.00
2023-04-10T03:25:52.816Z,100.00
2023-04-10T03:28:22.975Z,100.00
2023-04-10T03:30:51.539Z,100.00
2023-04-10T03:33:19.531Z,100.00
2023-04-10T03:35:48.056Z,100.00
2023-04-10T03:38:17.492Z,100.00
2023-04-10T03:40:45.525Z,100.00
2023-04-10T03:43:13.650Z,100.00
2023-04-10T03:45:41.609Z,100.00
2023-04-10T03:48:09.673Z,100.00
2023-04-10T03:50:44.624Z,100.00
2023-04-10T03:53:12.869Z,100.00
2023-04-10T03:55:43.018Z,100.00
2023-04-10T03:58:10.992Z,100.00
2023-04-10T04:00:39.278Z,100.00
2023-04-10T04:03:14.265Z,100.00
2023-04-10T04:06:02.869Z,100.00
2023-04-10T04:08:36.204Z,100.00
2023-04-10T04:11:25.873Z,100.00
2023-04-10T04:14:07.326Z,100.00
2023-04-10T04:16:48.105Z,100.00
2023-04-10T04:19:45.332Z,100.00
2023-04-10T04:22:22.954Z,100.00
2023-04-10T04:25:11.021Z,100.00
2023-04-10T04:28:04.612Z,100.00
2023-04-10T04:30:37.197Z,100.00
2023-04-10T04:33:11.955Z,100.00
2023-04-10T04:35:59.357Z,100.00
2023-04-10T04:38:39.349Z,100.00
2023-04-10T04:41:27.323Z,100.00
2023-04-10T04:44:08.274Z,100.00
2023-04-10T04:46:58.013Z,100.00
2023-04-10T04:49:52.384Z,100.00
2023-04-10T04:52:24.060Z,100.00
2023-04-10T04:55:18.269Z,100.00
2023-04-10T04:58:00.255Z,100.00
2023-04-10T05:00:55.385Z,100.00
2023-04-10T05:03:51.490Z,100.00
2023-04-10T05:06:37.621Z,100.00
2023-04-10T05:09:24.077Z,100.00
2023-04-10T05:12:10.807Z,100.00
2023-04-10T05:14:53.799Z,100.00
2023-04-10T05:17:29.453Z,100.00
2023-04-10T05:20:22.139Z,100.00
2023-04-10T05:23:12.068Z,100.00
2023-04-10T05:25:59.191Z,100.00
2023-04-10T05:28:46.169Z,100.00
2023-04-10T05:31:33.496Z,100.00
2023-04-10T05:34:39.597Z,100.00
2023-04-10T05:37:28.603Z,100.00
2023-04-10T05:40:04.990Z,100.00
2023-04-10T05:42:33.439Z,100.00
2023-04-10T05:45:15.363Z,100.00
2023-04-10T05:48:06.210Z,100.00
2023-04-10T05:50:45.811Z,100.00
2023-04-10T05:53:36.654Z,100.00
2023-04-10T05:56:23.531Z,100.00
2023-04-10T05:59:10.816Z,100.00
2023-04-10T06:01:59.424Z,100.00
2023-04-10T06:04:28.051Z,100.00
2023-04-10T06:07:00.570Z,100.00
2023-04-10T06:09:29.328Z,100.00
2023-04-10T06:11:57.853Z,100.00
2023-04-10T06:14:27.453Z,100.00
2023-04-10T06:16:58.068Z,100.00
2023-04-10T06:19:26.815Z,100.00
2023-04-10T06:21:54.786Z,100.00
2023-04-10T06:24:25.502Z,100.00
2023-04-10T06:26:57.257Z,100.00
2023-04-10T06:29:25.662Z,100.00
2023-04-10T06:31:54.115Z,100.00
2023-04-10T06:34:22.916Z,100.00
2023-04-10T06:36:57.552Z,100.00
2023-04-10T06:39:28.386Z,100.00
2023-04-10T06:41:57.837Z,100.00
2023-04-10T06:44:41.883Z,100.00
2023-04-10T06:47:10.544Z,100.00
2023-04-10T06:49:38.619Z,100.00
2023-04-10T06:52:06.895Z,100.00
2023-04-10T06:54:36.975Z,100.00
2023-04-10T06:57:05.723Z,97.11
2023-04-10T06:59:35.539Z,89.42
2023-04-10T07:02:04.304Z,91.59
2023-04-10T07:04:32.668Z,90.71
2023-04-10T07:07:00.675Z,89.03
2023-04-10T07:09:28.639Z,87.75
2023-04-10T07:11:58.237Z,85.62
2023-04-10T07:14:26.390Z,84.37
2023-04-10T07:16:54.778Z,86.13
2023-04-10T07:19:23.103Z,83.15
2023-04-10T07:21:51.169Z,82.48
2023-04-10T07:24:19.584Z,81.46
2023-04-10T07:26:47.814Z,79.87
2023-04-10T07:29:17.555Z,80.18
2023-04-10T07:31:46.080Z,77.58
2023-04-10T07:34:14.161Z,77.28
2023-04-10T07:36:42.049Z,75.32
2023-04-10T07:39:09.694Z,76.33
2023-04-10T07:41:37.518Z,73.20
2023-04-10T07:44:05.469Z,71.76
2023-04-10T07:46:34.866Z,68.79
2023-04-10T07:49:02.836Z,66.05
2023-04-10T07:51:30.964Z,64.90
2023-04-10T07:53:58.815Z,62.43
2023-04-10T07:56:26.424Z,60.07
2023-04-10T07:58:54.357Z,57.35
2023-04-10T08:01:22.432Z,56.34
2023-04-10T08:03:52.151Z,55.84
2023-04-10T08:06:20.429Z,54.05
2023-04-10T08:08:49.780Z,51.53
2023-04-10T08:11:24.624Z,51.72
2023-04-10T08:13:52.955Z,49.74
2023-04-10T08:16:22.172Z,49.90
2023-04-10T08:18:51.807Z,50.36
2023-04-10T08:21:20.414Z,50.17
2023-04-10T08:23:48.469Z,50.13
2023-04-10T08:26:16.595Z,50.58
2023-04-10T08:28:47.441Z,47.96
2023-04-10T08:31:15.512Z,48.54
2023-04-10T08:33:43.223Z,49.31
2023-04-10T08:36:16.522Z,49.35
2023-04-10T08:38:46.748Z,48.72
2023-04-10T08:41:15.757Z,50.45
2023-04-10T08:43:45.829Z,49.63
2023-04-10T08:46:14.591Z,48.47
2023-04-10T08:48:46.679Z,48.59
2023-04-10T08:51:20.341Z,47.70
2023-04-10T08:53:51.874Z,46.52
2023-04-10T08:56:20.351Z,45.88
2023-04-10T08:58:48.024Z,45.70
2023-04-10T09:01:16.195Z,44.36
2023-04-10T09:03:43.884Z,43.31
2023-04-10T09:06:11.689Z,44.61
2023-04-10T09:08:41.464Z,43.54
2023-04-10T09:11:09.085Z,41.58
2023-04-10T09:13:38.293Z,43.06
2023-04-10T09:16:06.634Z,43.28
2023-04-10T09:18:45.494Z,43.21
2023-04-10T09:21:15.272Z,41.83
2023-04-10T09:23:45.686Z,40.26
2023-04-10T09:26:26.855Z,39.49
2023-04-10T09:28:59.133Z,39.87
2023-04-10T09:31:34.258Z,38.07
2023-04-10T09:34:08.725Z,38.35
2023-04-10T09:36:37.191Z,37.52
2023-04-10T09:39:06.491Z,38.53
2023-04-10T09:41:34.827Z,35.98
2023-04-10T09:44:08.890Z,34.70
2023-04-10T09:46:36.979Z,34.24
2023-04-10T09:49:07.511Z,35.29
2023-04-10T09:51:36.704Z,34.74
2023-04-10T09:54:06.786Z,33.47
2023-04-10T09:56:37.461Z,28.19
2023-04-10T09:59:07.824Z,29.07
2023-04-10T10:01:36.619Z,29.11
2023-04-10T10:04:05.561Z,26.74
2023-04-10T10:06:35.070Z,27.24
2023-04-10T10:09:04.460Z,26.02
2023-04-10T10:11:35.364Z,26.10
2023-04-10T10:14:04.832Z,25.03
2023-04-10T10:16:36.142Z,24.97
2023-04-10T10:19:07.790Z,23.01
2023-04-10T10:21:36.722Z,21.74
2023-04-10T10:24:08.559Z,21.19
2023-04-10T10:26:40.182Z,20.06
2023-04-10T10:29:10.974Z,19.09
2023-04-10T10:31:39.902Z,19.69
2023-04-10T10:34:09.332Z,20.86
2023-04-10T10:36:37.859Z,19.84
2023-04-10T10:39:14.219Z,18.55
2023-04-10T10:41:45.948Z,17.76
2023-04-10T10:44:16.140Z,19.81
2023-04-10T10:46:47.777Z,18.95
2023-04-10T10:49:15.907Z,16.83
2023-04-10T10:51:44.989Z,17.85
2023-04-10T10:54:35.230Z,18.33
2023-04-10T10:57:08.041Z,15.98
2023-04-10T10:59:53.846Z,17.66
2023-04-10T11:02:22.548Z,16.16
2023-04-10T11:04:50.911Z,16.68
2023-04-10T11:07:19.130Z,17.37
2023-04-10T11:09:52.011Z,17.47
2023-04-10T11:12:23.210Z,17.53
2023-04-10T11:15:01.395Z,16.71
2023-04-10T11:17:49.018Z,16.33
2023-04-10T11:20:17.272Z,15.54
2023-04-10T11:23:03.868Z,15.17
2023-04-10T11:25:46.892Z,15.51
2023-04-10T11:28:34.550Z,15.48
2023-04-10T11:31:15.164Z,16.18
2023-04-10T11:33:43.568Z,15.56
2023-04-10T11:36:16.450Z,15.04
2023-04-10T11:38:54.852Z,15.65
2023-04-10T11:41:27.325Z,16.45
2023-04-10T11:43:56.658Z,15.92
2023-04-10T11:46:24.813Z,16.99
2023-04-10T11:48:57.173Z,17.33
2023-04-10T11:51:25.241Z,17.62
2023-04-10T11:54:05.516Z,18.75
2023-04-10T11:56:33.389Z,17.30
2023-04-10T11:59:07.643Z,17.95
2023-04-10T12:01:36.596Z,17.21
2023-04-10T12:04:04.652Z,17.57
2023-04-10T12:06:33.171Z,17.64
2023-04-10T12:09:01.343Z,17.73
2023-04-10T12:11:29.875Z,18.51
2023-04-10T12:13:58.430Z,19.41
2023-04-10T12:16:27.878Z,20.19
2023-04-10T12:18:56.927Z,19.93
2023-04-10T12:21:26.396Z,18.69
2023-04-10T12:23:54.586Z,18.41
2023-04-10T12:26:22.710Z,17.40
2023-04-10T12:28:52.046Z,17.02
2023-04-10T12:31:20.468Z,17.68
2023-04-10T12:33:49.944Z,18.87
2023-04-10T12:36:21.415Z,17.91
2023-04-10T12:38:49.214Z,16.91
2023-04-10T12:41:22.246Z,16.54
2023-04-10T12:43:50.137Z,17.82
2023-04-10T12:46:24.653Z,15.96
2023-04-10T12:48:54.273Z,16.56
2023-04-10T12:51:42.082Z,17.46
2023-04-10T12:54:09.810Z,18.01
2023-04-10T12:56:44.547Z,18.20
2023-04-10T12:59:12.751Z,17.79
2023-04-10T13:01:40.736Z,18.97
2023-04-10T13:04:10.302Z,19.25
2023-04-10T13:06:43.946Z,18.54
2023-04-10T13:09:12.247Z,17.90
2023-04-10T13:11:40.595Z,17.87
2023-04-10T13:14:08.624Z,18.17
2023-04-10T13:16:36.938Z,19.18
2023-04-10T13:19:04.928Z,19.17
2023-04-10T13:21:34.405Z,19.51
2023-04-10T13:24:02.033Z,19.92
2023-04-10T13:26:29.754Z,19.28
2023-04-10T13:28:57.642Z,19.69
2023-04-10T13:31:25.470Z,20.31
2023-04-10T13:33:53.538Z,20.53
2023-04-10T13:36:21.409Z,20.10
2023-04-10T13:38:50.908Z,20.93
2023-04-10T13:41:20.524Z,20.45
2023-04-10T13:43:48.236Z,21.24
2023-04-10T13:46:16.764Z,21.17
2023-04-10T13:48:44.991Z,21.08
2023-04-10T13:51:12.765Z,20.81
2023-04-10T13:53:40.624Z,20.97
2023-04-10T13:56:10.433Z,20.62
2023-04-10T13:58:38.413Z,20.40
2023-04-10T14:01:06.548Z,20.65
2023-04-10T14:03:34.544Z,20.67
2023-04-10T14:06:02.411Z,19.71
2023-04-10T14:08:30.320Z,18.98
2023-04-10T14:10:58.161Z,19.09
2023-04-10T14:13:27.718Z,19.59
2023-04-10T14:15:55.786Z,18.92
2023-04-10T14:18:23.707Z,19.78
2023-04-10T14:20:54.513Z,19.09
2023-04-10T14:23:22.702Z,18.74
2023-04-10T14:25:51.406Z,18.43
2023-04-10T14:28:19.229Z,17.34
2023-04-10T14:30:49.369Z,17.90
2023-04-10T14:33:19.645Z,17.95
2023-04-10T14:35:48.485Z,18.44
2023-04-10T14:38:16.906Z,17.98
2023-04-10T14:40:46.644Z,17.95
2023-04-10T14:43:14.724Z,18.87
2023-04-10T14:45:42.643Z,19.53
2023-04-10T14:48:12.821Z,19.99
2023-04-10T14:50:41.867Z,19.79
2023-04-10T14:53:10.797Z,19.85
2023-04-10T14:55:38.698Z,20.23
2023-04-10T14:58:09.074Z,21.66
2023-04-10T15:00:37.257Z,22.33
2023-04-10T15:03:06.244Z,22.43
2023-04-10T15:05:36.319Z,22.76
2023-04-10T15:08:04.582Z,23.47
2023-04-10T15:10:32.836Z,24.18
2023-04-10T15:13:00.675Z,24.54
2023-04-10T15:15:28.985Z,25.18
2023-04-10T15:17:57.090Z,25.04
2023-04-10T15:20:25.396Z,25.67
2023-04-10T15:22:54.478Z,25.88
2023-04-10T15:25:22.343Z,25.57
2023-04-10T15:27:50.196Z,24.85
2023-04-10T15:30:18.704Z,24.25
2023-04-10T15:32:46.638Z,24.69
2023-04-10T15:35:14.734Z,25.55
2023-04-10T15:37:42.556Z,25.52
2023-04-10T15:40:11.902Z,25.33
2023-04-10T15:42:39.952Z,25.50
2023-04-10T15:45:08.928Z,25.51
2023-04-10T15:47:36.783Z,24.12
2023-04-10T15:50:05.157Z,23.43
2023-04-10T15:52:34.094Z,22.58
2023-04-10T15:55:02.024Z,22.11
2023-04-10T15:57:30.924Z,22.52
2023-04-10T16:00:00.716Z,22.71
2023-04-10T16:02:28.915Z,22.64
2023-04-10T16:04:56.948Z,21.94
2023-04-10T16:07:25.021Z,22.11
2023-04-10T16:09:55.078Z,21.76
2023-04-10T16:12:22.842Z,22.87
2023-04-10T16:14:52.139Z,24.13
2023-04-10T16:17:20.100Z,25.68
2023-04-10T16:19:47.950Z,26.22
2023-04-10T16:22:15.887Z,26.76
2023-04-10T16:24:43.608Z,27.36
2023-04-10T16:27:11.466Z,27.52
2023-04-10T16:29:39.350Z,28.25
2023-04-10T16:32:09.197Z,30.64
2023-04-10T16:34:36.991Z,32.30
2023-04-10T16:37:04.970Z,32.66
2023-04-10T16:39:33.492Z,33.32
2023-04-10T16:42:03.468Z,33.67
2023-04-10T16:44:31.398Z,33.77
2023-04-10T16:46:59.013Z,34.31
2023-04-10T16:49:28.646Z,34.50
2023-04-10T16:51:56.318Z,34.80
2023-04-10T16:54:24.072Z,34.35
2023-04-10T16:56:51.844Z,34.44
2023-04-10T16:59:19.667Z,34.62
2023-04-10T17:01:48.023Z,34.85
2023-04-10T17:04:18.258Z,34.69
2023-04-10T17:06:47.553Z,34.91
2023-04-10T17:09:15.792Z,35.26
2023-04-10T17:11:44.248Z,35.54
2023-04-10T17:14:13.708Z,35.64
2023-04-10T17:16:41.901Z,36.30
2023-04-10T17:19:12.327Z,36.59
2023-04-10T17:21:40.473Z,36.10
2023-04-10T17:24:10.273Z,36.38
2023-04-10T17:26:38.413Z,36.10
2023-04-10T17:29:09.472Z,36.40
2023-04-10T17:31:37.896Z,36.26
2023-04-10T17:34:06.357Z,36.88
2023-04-10T17:36:35.090Z,37.27
2023-04-10T17:39:03.449Z,37.62
2023-04-10T17:41:33.124Z,37.89
2023-04-10T17:44:04.701Z,38.18
2023-04-10T17:46:33.389Z,38.38
2023-04-10T17:49:01.932Z,38.58
2023-04-10T17:51:30.264Z,39.34
2023-04-10T17:53:58.539Z,39.26
2023-04-10T17:56:26.610Z,39.63
2023-04-10T17:58:56.785Z,39.77
2023-04-10T18:01:30.345Z,39.99
2023-04-10T18:03:59.195Z,40.21
2023-04-10T18:06:31.844Z,40.56
2023-04-10T18:08:59.945Z,41.04
2023-04-10T18:11:28.871Z,40.50
2023-04-10T18:14:02.538Z,40.83
2023-04-10T18:16:31.182Z,40.90
2023-04-10T18:19:06.182Z,41.04
2023-04-10T18:21:42.218Z,40.82
2023-04-10T18:24:11.204Z,41.28
2023-04-10T18:26:39.213Z,41.31
2023-04-10T18:29:08.814Z,42.35
2023-04-10T18:31:36.554Z,42.82
2023-04-10T18:34:08.282Z,43.04
2023-04-10T18:36:37.050Z,43.77
2023-04-10T18:39:07.169Z,43.51
2023-04-10T18:41:35.466Z,43.51
2023-04-10T18:44:06.934Z,44.12
2023-04-10T18:46:38.033Z,44.43
2023-04-10T18:49:06.298Z,44.25
2023-04-10T18:51:35.611Z,44.41
2023-04-10T18:54:03.852Z,44.73
2023-04-10T18:56:31.610Z,45.13
2023-04-10T18:58:59.598Z,45.22
2023-04-10T19:01:28.714Z,45.78
2023-04-10T19:03:58.905Z,45.24
2023-04-10T19:06:27.088Z,45.54
2023-04-10T19:08:56.050Z,46.11
2023-04-10T19:11:26.029Z,46.39
2023-04-10T19:13:54.524Z,47.23
2023-04-10T19:16:22.958Z,46.93
2023-04-10T19:18:51.663Z,46.99
2023-04-10T19:21:20.980Z,46.72
2023-04-10T19:23:50.154Z,46.93
2023-04-10T19:26:20.255Z,47.36
2023-04-10T19:28:48.289Z,47.13
2023-04-10T19:31:16.639Z,47.69
2023-04-10T19:33:44.403Z,47.94
2023-04-10T19:36:12.743Z,47.97
2023-04-10T19:38:44.580Z,48.17
2023-04-10T19:41:16.271Z,48.51
2023-04-10T19:43:44.544Z,48.39
2023-04-10T19:46:19.120Z,48.91
2023-04-10T19:48:47.582Z,48.94
2023-04-10T19:51:15.765Z,49.19
2023-04-10T19:53:45.410Z,49.23
2023-04-10T19:56:13.159Z,49.43
2023-04-10T19:58:42.593Z,50.20
2023-04-10T20:01:12.311Z,49.80
2023-04-10T20:03:41.107Z,50.08
2023-04-10T20:06:08.918Z,51.55
2023-04-10T20:08:36.909Z,53.05
2023-04-10T20:11:06.989Z,54.42
2023-04-10T20:13:35.679Z,54.65
2023-04-10T20:16:04.018Z,54.45
2023-04-10T20:18:32.113Z,54.75
2023-04-10T20:20:59.991Z,55.07
2023-04-10T20:23:28.002Z,54.97
2023-04-10T20:25:56.002Z,54.42
2023-04-10T20:28:25.621Z,53.68
2023-04-10T20:30:53.600Z,53.37
2023-04-10T20:33:21.367Z,53.03
2023-04-10T20:35:49.279Z,54.00
2023-04-10T20:38:19.232Z,54.65
2023-04-10T20:40:47.133Z,55.97
2023-04-10T20:43:15.308Z,57.84
2023-04-10T20:45:44.672Z,59.33
2023-04-10T20:48:12.727Z,65.60
2023-04-10T20:50:43.090Z,67.20
2023-04-10T20:53:12.742Z,66.83
2023-04-10T20:55:40.612Z,64.17
2023-04-10T20:58:08.670Z,64.97
2023-04-10T21:00:37.534Z,63.10
2023-04-10T21:03:07.002Z,63.22
2023-04-10T21:05:35.019Z,63.19
2023-04-10T21:08:03.272Z,63.54
2023-04-10T21:10:31.417Z,64.48
2023-04-10T21:12:59.226Z,64.13
2023-04-10T21:15:26.860Z,64.13
2023-04-10T21:17:54.677Z,64.38
2023-04-10T21:20:29.384Z,64.92
2023-04-10T21:22:57.115Z,65.77
2023-04-10T21:25:24.797Z,66.61
2023-04-10T21:27:52.884Z,66.08
2023-04-10T21:30:22.080Z,66.17
2023-04-10T21:32:50.153Z,65.59
2023-04-10T21:35:18.263Z,65.14
2023-04-10T21:37:47.704Z,66.02
2023-04-10T21:40:15.561Z,66.58
2023-04-10T21:42:43.600Z,67.35
2023-04-10T21:45:12.146Z,68.79
2023-04-10T21:47:40.107Z,69.14
2023-04-10T21:50:08.474Z,69.18
2023-04-10T21:52:36.409Z,69.78
2023-04-10T21:55:06.508Z,69.31
2023-04-10T21:57:34.905Z,69.17
2023-04-10T22:00:03.331Z,68.94
2023-04-10T22:02:33.527Z,69.37
2023-04-10T22:05:02.425Z,68.62
2023-04-10T22:07:30.671Z,68.71
2023-04-10T22:09:58.675Z,68.69
2023-04-10T22:12:28.322Z,79.44
2023-04-10T22:14:56.470Z,92.37
2023-04-10T22:17:24.826Z,100.00
2023-04-10T22:19:53.124Z,100.00
2023-04-10T22:22:21.245Z,99.84
2023-04-10T22:24:49.393Z,100.00
2023-04-10T22:27:17.730Z,100.00
2023-04-10T22:29:56.199Z,100.00
2023-04-10T22:32:30.714Z,100.00
2023-04-10T22:35:00.279Z,100.00
2023-04-10T22:37:28.556Z,100.00
2023-04-10T22:39:57.021Z,100.00
2023-04-10T22:42:24.949Z,100.00
2023-04-10T22:44:54.502Z,100.00
2023-04-10T22:47:22.486Z,100.00
2023-04-10T22:49:50.407Z,100.00
2023-04-10T22:52:18.107Z,100.00
2023-04-10T22:54:45.833Z,100.00
2023-04-10T22:57:13.614Z,100.00
2023-04-10T22:59:41.431Z,100.00
2023-04-10T23:02:10.757Z,100.00
2023-04-10T23:04:38.644Z,100.00
2023-04-10T23:07:06.679Z,100.00
2023-04-10T23:09:34.509Z,100.00
2023-04-10T23:12:02.647Z,100.00
2023-04-10T23:14:30.596Z,100.00
2023-04-10T23:16:58.336Z,100.00
2023-04-10T23:19:27.506Z,100.00
2023-04-10T23:21:55.348Z,100.00
2023-04-10T23:24:23.165Z,100.00
2023-04-10T23:26:51.107Z,100.00
2023-04-10T23:29:19.183Z,100.00
2023-04-10T23:31:46.986Z,100.00
2023-04-10T23:34:14.956Z,100.00
2023-04-10T23:36:44.359Z,100.00
2023-04-10T23:39:12.547Z,100.00
2023-04-10T23:41:40.347Z,100.00
2023-04-10T23:44:08.020Z,100.00
2023-04-10T23:46:36.087Z,100.00
2023-04-10T23:49:04.024Z,100.00
2023-04-10T23:51:33.331Z,100.00
2023-04-10T23:54:02.609Z,100.00
2023-04-10T23:56:31.169Z,100.00
2023-04-10T23:58:59.318Z,100.00
